<?xml version="1.0" encoding="UTF-8" standalone="no" ?>
<gpx xmlns="http://www.topografix.com/GPX/1/1" xmlns:xsi="http://www.w3.org/2001/XMLSchema-instance" xsi:schemaLocation="http://www.topografix.com/GPX/1/1 http://www.topografix.com/GPX/1/1/gpx.xsd" version="1.1" creator="VisuGPX - https://www.visugpx.com">
  <metadata>
    <name>Edirne-Sarajevo</name>
  </metadata>
  <trk>
    <name><![CDATA[Tour d'Europe: étape 672]]></name>
    <extensions>
      <line xmlns="http://www.topografix.com/GPX/gpx_style/0/2">
        <color>0000FF</color>
        <width>4</width>
      </line>
    </extensions>
    <trkseg>
      <trkpt lat="41.17664" lon="20.67606">
        <ele>761.792461</ele>
        <time>2022-05-01T07:07:47.723Z</time>
      </trkpt>
      <trkpt lat="41.17733" lon="20.676">
        <ele>761.425551</ele>
        <time>2022-05-01T07:18:43.518Z</time>
      </trkpt>
      <trkpt lat="41.17736" lon="20.6736">
        <ele>755.106282</ele>
        <time>2022-05-01T07:19:50.531Z</time>
      </trkpt>
      <trkpt lat="41.17681" lon="20.67072">
        <ele>749.608639</ele>
        <time>2022-05-01T07:20:48.533Z</time>
      </trkpt>
      <trkpt lat="41.17623" lon="20.66803">
        <ele>748.322945</ele>
        <time>2022-05-01T07:21:37.545Z</time>
      </trkpt>
      <trkpt lat="41.17555" lon="20.66491">
        <ele>739.579665</ele>
        <time>2022-05-01T07:22:36.528Z</time>
      </trkpt>
      <trkpt lat="41.1749" lon="20.66173">
        <ele>737.56282</ele>
        <time>2022-05-01T07:23:34.529Z</time>
      </trkpt>
      <trkpt lat="41.17426" lon="20.65907">
        <ele>735.951372</ele>
        <time>2022-05-01T07:24:19.550Z</time>
      </trkpt>
      <trkpt lat="41.17404" lon="20.65667">
        <ele>738.324644</ele>
        <time>2022-05-01T07:25:03.533Z</time>
      </trkpt>
      <trkpt lat="41.17313" lon="20.65434">
        <ele>739.091451</ele>
        <time>2022-05-01T07:25:43.532Z</time>
      </trkpt>
      <trkpt lat="41.17252" lon="20.65188">
        <ele>740.899515</ele>
        <time>2022-05-01T07:26:23.536Z</time>
      </trkpt>
      <trkpt lat="41.17162" lon="20.64954">
        <ele>740.541838</ele>
        <time>2022-05-01T07:27:04.518Z</time>
      </trkpt>
      <trkpt lat="41.17056" lon="20.64732">
        <ele>740.881554</ele>
        <time>2022-05-01T07:27:44.523Z</time>
      </trkpt>
      <trkpt lat="41.16953" lon="20.64516">
        <ele>741.712355</ele>
        <time>2022-05-01T07:28:24.533Z</time>
      </trkpt>
      <trkpt lat="41.16837" lon="20.64308">
        <ele>740.143506</ele>
        <time>2022-05-01T07:29:04.533Z</time>
      </trkpt>
      <trkpt lat="41.16717" lon="20.64103">
        <ele>740.020226</ele>
        <time>2022-05-01T07:29:44.544Z</time>
      </trkpt>
      <trkpt lat="41.16572" lon="20.63935">
        <ele>741.88544</ele>
        <time>2022-05-01T07:30:25.547Z</time>
      </trkpt>
      <trkpt lat="41.16418" lon="20.63704">
        <ele>746.335427</ele>
        <time>2022-05-01T07:31:22.543Z</time>
      </trkpt>
      <trkpt lat="41.16221" lon="20.6355">
        <ele>745.539656</ele>
        <time>2022-05-01T07:32:21.547Z</time>
      </trkpt>
      <trkpt lat="41.15992" lon="20.6346">
        <ele>746.202248</ele>
        <time>2022-05-01T07:33:19.518Z</time>
      </trkpt>
      <trkpt lat="41.1577" lon="20.63423">
        <ele>751.188397</ele>
        <time>2022-05-01T07:34:24.531Z</time>
      </trkpt>
      <trkpt lat="41.15564" lon="20.63386">
        <ele>761.616719</ele>
        <time>2022-05-01T07:35:48.530Z</time>
      </trkpt>
      <trkpt lat="41.15354" lon="20.63355">
        <ele>768.467891</ele>
        <time>2022-05-01T07:37:12.544Z</time>
      </trkpt>
      <trkpt lat="41.15156" lon="20.63284">
        <ele>770.068972</ele>
        <time>2022-05-01T07:38:22.581Z</time>
      </trkpt>
      <trkpt lat="41.14935" lon="20.63199">
        <ele>767.245905</ele>
        <time>2022-05-01T07:39:10.539Z</time>
      </trkpt>
      <trkpt lat="41.14717" lon="20.631">
        <ele>766.091173</ele>
        <time>2022-05-01T07:40:02.553Z</time>
      </trkpt>
      <trkpt lat="41.14516" lon="20.63009">
        <ele>771.262941</ele>
        <time>2022-05-01T07:41:10.545Z</time>
      </trkpt>
      <trkpt lat="41.14307" lon="20.62931">
        <ele>776.795099</ele>
        <time>2022-05-01T07:42:10.545Z</time>
      </trkpt>
      <trkpt lat="41.14113" lon="20.62833">
        <ele>782.285553</ele>
        <time>2022-05-01T07:43:32.535Z</time>
      </trkpt>
      <trkpt lat="41.13912" lon="20.62812">
        <ele>788.350076</ele>
        <time>2022-05-01T07:44:52.540Z</time>
      </trkpt>
      <trkpt lat="41.13711" lon="20.62797">
        <ele>801.095633</ele>
        <time>2022-05-01T07:46:15.536Z</time>
      </trkpt>
      <trkpt lat="41.13512" lon="20.62849">
        <ele>809.273279</ele>
        <time>2022-05-01T07:47:39.540Z</time>
      </trkpt>
      <trkpt lat="41.13318" lon="20.62877">
        <ele>811.259597</ele>
        <time>2022-05-01T07:49:15.545Z</time>
      </trkpt>
      <trkpt lat="41.13126" lon="20.62875">
        <ele>815.289264</ele>
        <time>2022-05-01T07:51:08.578Z</time>
      </trkpt>
      <trkpt lat="41.12948" lon="20.62772">
        <ele>820.994946</ele>
        <time>2022-05-01T07:52:55.567Z</time>
      </trkpt>
      <trkpt lat="41.12752" lon="20.62744">
        <ele>838.773178</ele>
        <time>2022-05-01T07:54:36.525Z</time>
      </trkpt>
      <trkpt lat="41.12554" lon="20.62745">
        <ele>845.532328</ele>
        <time>2022-05-01T07:56:19.544Z</time>
      </trkpt>
      <trkpt lat="41.12358" lon="20.62729">
        <ele>847.162802</ele>
        <time>2022-05-01T07:58:17.533Z</time>
      </trkpt>
      <trkpt lat="41.12191" lon="20.62601">
        <ele>850.931551</ele>
        <time>2022-05-01T08:00:21.543Z</time>
      </trkpt>
      <trkpt lat="41.1203" lon="20.62465">
        <ele>865.743231</ele>
        <time>2022-05-01T08:02:45.546Z</time>
      </trkpt>
      <trkpt lat="41.11908" lon="20.62284">
        <ele>892.313888</ele>
        <time>2022-05-01T08:04:56.558Z</time>
      </trkpt>
      <trkpt lat="41.11723" lon="20.62219">
        <ele>913.33438</ele>
        <time>2022-05-01T08:07:15.540Z</time>
      </trkpt>
      <trkpt lat="41.11534" lon="20.6218">
        <ele>919.095311</ele>
        <time>2022-05-01T08:09:35.534Z</time>
      </trkpt>
      <trkpt lat="41.11348" lon="20.62115">
        <ele>927.430053</ele>
        <time>2022-05-01T08:12:33.533Z</time>
      </trkpt>
      <trkpt lat="41.11177" lon="20.61975">
        <ele>959.153237</ele>
        <time>2022-05-01T08:20:50.529Z</time>
      </trkpt>
      <trkpt lat="41.11073" lon="20.61767">
        <ele>981.818241</ele>
        <time>2022-05-01T08:23:36.540Z</time>
      </trkpt>
      <trkpt lat="41.10908" lon="20.61661">
        <ele>992.984053</ele>
        <time>2022-05-01T08:26:41.584Z</time>
      </trkpt>
      <trkpt lat="41.10724" lon="20.6161">
        <ele>1012.963559</ele>
        <time>2022-05-01T08:29:33.542Z</time>
      </trkpt>
      <trkpt lat="41.10596" lon="20.6143">
        <ele>1022.358823</ele>
        <time>2022-05-01T08:32:09.542Z</time>
      </trkpt>
      <trkpt lat="41.10434" lon="20.61301">
        <ele>1039.660297</ele>
        <time>2022-05-01T08:34:43.531Z</time>
      </trkpt>
      <trkpt lat="41.10211" lon="20.61176">
        <ele>1044.580441</ele>
        <time>2022-05-01T08:35:48.541Z</time>
      </trkpt>
      <trkpt lat="41.09897" lon="20.61141">
        <ele>1031.701146</ele>
        <time>2022-05-01T08:36:28.563Z</time>
      </trkpt>
      <trkpt lat="41.09637" lon="20.61144">
        <ele>1019.951308</ele>
        <time>2022-05-01T08:37:08.531Z</time>
      </trkpt>
      <trkpt lat="41.09416" lon="20.61044">
        <ele>1020.310411</ele>
        <time>2022-05-01T08:38:02.541Z</time>
      </trkpt>
      <trkpt lat="41.09234" lon="20.60881">
        <ele>1027.808497</ele>
        <time>2022-05-01T08:39:21.613Z</time>
      </trkpt>
      <trkpt lat="41.09007" lon="20.60748">
        <ele>1033.32696</ele>
        <time>2022-05-01T08:46:32.562Z</time>
      </trkpt>
      <trkpt lat="41.08803" lon="20.60626">
        <ele>1032.441031</ele>
        <time>2022-05-01T09:00:05.551Z</time>
      </trkpt>
      <trkpt lat="41.08603" lon="20.6055">
        <ele>1028.643302</ele>
        <time>2022-05-01T09:01:11.552Z</time>
      </trkpt>
      <trkpt lat="41.08384" lon="20.60501">
        <ele>1028.899777</ele>
        <time>2022-05-01T09:02:03.557Z</time>
      </trkpt>
      <trkpt lat="41.08185" lon="20.60465">
        <ele>1043.512632</ele>
        <time>2022-05-01T09:03:54.586Z</time>
      </trkpt>
      <trkpt lat="41.08012" lon="20.60561">
        <ele>1049.652683</ele>
        <time>2022-05-01T09:05:27.547Z</time>
      </trkpt>
      <trkpt lat="41.07812" lon="20.60678">
        <ele>1045.774453</ele>
        <time>2022-05-01T09:06:27.538Z</time>
      </trkpt>
      <trkpt lat="41.07607" lon="20.60616">
        <ele>1042.29215</ele>
        <time>2022-05-01T09:07:17.546Z</time>
      </trkpt>
      <trkpt lat="41.07392" lon="20.60496">
        <ele>1032.329697</ele>
        <time>2022-05-01T09:07:48.547Z</time>
      </trkpt>
      <trkpt lat="41.0718" lon="20.60566">
        <ele>1024.882335</ele>
        <time>2022-05-01T09:08:14.552Z</time>
      </trkpt>
      <trkpt lat="41.06932" lon="20.60553">
        <ele>1009.46641</ele>
        <time>2022-05-01T09:08:43.536Z</time>
      </trkpt>
      <trkpt lat="41.06694" lon="20.60614">
        <ele>988.743773</ele>
        <time>2022-05-01T09:09:14.535Z</time>
      </trkpt>
      <trkpt lat="41.06506" lon="20.60839">
        <ele>967.427519</ele>
        <time>2022-05-01T09:14:36.545Z</time>
      </trkpt>
      <trkpt lat="41.06592" lon="20.60519">
        <ele>949.503816</ele>
        <time>2022-05-01T09:15:16.550Z</time>
      </trkpt>
      <trkpt lat="41.06642" lon="20.60233">
        <ele>929.452841</ele>
        <time>2022-05-01T09:15:43.543Z</time>
      </trkpt>
      <trkpt lat="41.06724" lon="20.59993">
        <ele>913.10056</ele>
        <time>2022-05-01T09:16:03.543Z</time>
      </trkpt>
      <trkpt lat="41.06942" lon="20.59835">
        <ele>892.169206</ele>
        <time>2022-05-01T09:16:35.552Z</time>
      </trkpt>
      <trkpt lat="41.06712" lon="20.5987">
        <ele>873.385347</ele>
        <time>2022-05-01T09:17:09.522Z</time>
      </trkpt>
      <trkpt lat="41.06544" lon="20.59766">
        <ele>863.779278</ele>
        <time>2022-05-01T09:17:49.547Z</time>
      </trkpt>
      <trkpt lat="41.06408" lon="20.59519">
        <ele>855.730934</ele>
        <time>2022-05-01T09:18:31.569Z</time>
      </trkpt>
      <trkpt lat="41.06464" lon="20.59218">
        <ele>838.100392</ele>
        <time>2022-05-01T09:18:59.560Z</time>
      </trkpt>
      <trkpt lat="41.06483" lon="20.591">
        <ele>817.742367</ele>
        <time>2022-05-01T09:19:36.549Z</time>
      </trkpt>
      <trkpt lat="41.0666" lon="20.59253">
        <ele>805.760629</ele>
        <time>2022-05-01T09:23:11.551Z</time>
      </trkpt>
      <trkpt lat="41.06772" lon="20.58982">
        <ele>786.558749</ele>
        <time>2022-05-01T09:23:38.557Z</time>
      </trkpt>
      <trkpt lat="41.06918" lon="20.5899">
        <ele>761.715756</ele>
        <time>2022-05-01T09:24:14.542Z</time>
      </trkpt>
      <trkpt lat="41.0686" lon="20.59248">
        <ele>749.637146</ele>
        <time>2022-05-01T09:24:56.548Z</time>
      </trkpt>
      <trkpt lat="41.0708" lon="20.59086">
        <ele>731.227346</ele>
        <time>2022-05-01T09:25:26.579Z</time>
      </trkpt>
      <trkpt lat="41.07244" lon="20.58924">
        <ele>717.170515</ele>
        <time>2022-05-01T09:25:46.539Z</time>
      </trkpt>
      <trkpt lat="41.07333" lon="20.58727">
        <ele>700.928092</ele>
        <time>2022-05-01T09:26:14.547Z</time>
      </trkpt>
      <trkpt lat="41.07111" lon="20.58718">
        <ele>681.883593</ele>
        <time>2022-05-01T09:26:37.557Z</time>
      </trkpt>
      <trkpt lat="41.07049" lon="20.58468">
        <ele>664.169332</ele>
        <time>2022-05-01T09:26:57.548Z</time>
      </trkpt>
      <trkpt lat="41.07056" lon="20.58158">
        <ele>649.014867</ele>
        <time>2022-05-01T09:27:17.550Z</time>
      </trkpt>
      <trkpt lat="41.07047" lon="20.57876">
        <ele>639.097993</ele>
        <time>2022-05-01T09:27:37.548Z</time>
      </trkpt>
      <trkpt lat="41.07015" lon="20.57613">
        <ele>633.31137</ele>
        <time>2022-05-01T09:27:57.591Z</time>
      </trkpt>
      <trkpt lat="41.06938" lon="20.57375">
        <ele>629.791562</ele>
        <time>2022-05-01T09:28:17.558Z</time>
      </trkpt>
      <trkpt lat="41.06932" lon="20.57043">
        <ele>628.213932</ele>
        <time>2022-05-01T09:28:47.547Z</time>
      </trkpt>
      <trkpt lat="41.06926" lon="20.56759">
        <ele>637.026728</ele>
        <time>2022-05-01T09:29:57.555Z</time>
      </trkpt>
      <trkpt lat="41.0698" lon="20.56487">
        <ele>636.547845</ele>
        <time>2022-05-01T09:30:48.534Z</time>
      </trkpt>
      <trkpt lat="41.07152" lon="20.56296">
        <ele>634.274606</ele>
        <time>2022-05-01T09:31:17.587Z</time>
      </trkpt>
      <trkpt lat="41.07152" lon="20.55982">
        <ele>630.542996</ele>
        <time>2022-05-01T09:31:57.556Z</time>
      </trkpt>
      <trkpt lat="41.07114" lon="20.5566">
        <ele>628.046099</ele>
        <time>2022-05-01T09:32:37.543Z</time>
      </trkpt>
      <trkpt lat="41.07067" lon="20.55372">
        <ele>624.893486</ele>
        <time>2022-05-01T09:33:05.539Z</time>
      </trkpt>
      <trkpt lat="41.06994" lon="20.55013">
        <ele>621.953567</ele>
        <time>2022-05-01T09:33:46.546Z</time>
      </trkpt>
      <trkpt lat="41.06897" lon="20.54762">
        <ele>620.605429</ele>
        <time>2022-05-01T09:34:27.562Z</time>
      </trkpt>
      <trkpt lat="41.06789" lon="20.54522">
        <ele>616.902034</ele>
        <time>2022-05-01T09:35:07.547Z</time>
      </trkpt>
      <trkpt lat="41.06691" lon="20.54248">
        <ele>613.908594</ele>
        <time>2022-05-01T09:35:47.549Z</time>
      </trkpt>
      <trkpt lat="41.0663" lon="20.53962">
        <ele>613.737319</ele>
        <time>2022-05-01T09:36:27.546Z</time>
      </trkpt>
      <trkpt lat="41.06584" lon="20.53678">
        <ele>613.271777</ele>
        <time>2022-05-01T09:37:07.556Z</time>
      </trkpt>
      <trkpt lat="41.06492" lon="20.53363">
        <ele>609.638968</ele>
        <time>2022-05-01T09:37:47.549Z</time>
      </trkpt>
      <trkpt lat="41.06389" lon="20.53114">
        <ele>609.458407</ele>
        <time>2022-05-01T09:38:27.548Z</time>
      </trkpt>
      <trkpt lat="41.06313" lon="20.52805">
        <ele>604.875502</ele>
        <time>2022-05-01T09:39:07.566Z</time>
      </trkpt>
      <trkpt lat="41.06448" lon="20.52418">
        <ele>597.933953</ele>
        <time>2022-05-01T09:39:47.537Z</time>
      </trkpt>
      <trkpt lat="41.06583" lon="20.52104">
        <ele>592.866759</ele>
        <time>2022-05-01T09:40:29.540Z</time>
      </trkpt>
      <trkpt lat="41.06698" lon="20.51882">
        <ele>594.281024</ele>
        <time>2022-05-01T09:41:12.557Z</time>
      </trkpt>
      <trkpt lat="41.06702" lon="20.51595">
        <ele>596.217622</ele>
        <time>2022-05-01T09:41:52.563Z</time>
      </trkpt>
      <trkpt lat="41.06962" lon="20.51407">
        <ele>595.234613</ele>
        <time>2022-05-01T09:42:32.539Z</time>
      </trkpt>
      <trkpt lat="41.0724" lon="20.51239">
        <ele>587.577329</ele>
        <time>2022-05-01T09:43:12.538Z</time>
      </trkpt>
      <trkpt lat="41.07298" lon="20.51011">
        <ele>574.934511</ele>
        <time>2022-05-01T09:43:48.604Z</time>
      </trkpt>
      <trkpt lat="41.07331" lon="20.50686">
        <ele>562.529366</ele>
        <time>2022-05-01T09:44:17.559Z</time>
      </trkpt>
      <trkpt lat="41.07326" lon="20.50412">
        <ele>550.462938</ele>
        <time>2022-05-01T09:44:37.571Z</time>
      </trkpt>
      <trkpt lat="41.07382" lon="20.50117">
        <ele>538.635179</ele>
        <time>2022-05-01T09:44:57.538Z</time>
      </trkpt>
      <trkpt lat="41.07489" lon="20.49871">
        <ele>534.235533</ele>
        <time>2022-05-01T09:45:18.566Z</time>
      </trkpt>
      <trkpt lat="41.07491" lon="20.49512">
        <ele>528.115398</ele>
        <time>2022-05-01T09:45:55.587Z</time>
      </trkpt>
      <trkpt lat="41.07482" lon="20.49201">
        <ele>523.78647</ele>
        <time>2022-05-01T09:46:35.544Z</time>
      </trkpt>
      <trkpt lat="41.07509" lon="20.48923">
        <ele>523.039853</ele>
        <time>2022-05-01T09:46:58.563Z</time>
      </trkpt>
      <trkpt lat="41.07516" lon="20.48663">
        <ele>527.179612</ele>
        <time>2022-05-01T09:48:06.567Z</time>
      </trkpt>
      <trkpt lat="41.07491" lon="20.48375">
        <ele>519.928194</ele>
        <time>2022-05-01T09:48:53.562Z</time>
      </trkpt>
      <trkpt lat="41.07467" lon="20.48017">
        <ele>508.71489</ele>
        <time>2022-05-01T09:49:25.535Z</time>
      </trkpt>
      <trkpt lat="41.07382" lon="20.47749">
        <ele>499.525431</ele>
        <time>2022-05-01T09:49:50.535Z</time>
      </trkpt>
      <trkpt lat="41.07405" lon="20.4746">
        <ele>484.643055</ele>
        <time>2022-05-01T09:50:12.597Z</time>
      </trkpt>
      <trkpt lat="41.07447" lon="20.47221">
        <ele>473.537491</ele>
        <time>2022-05-01T09:50:32.584Z</time>
      </trkpt>
      <trkpt lat="41.07339" lon="20.46982">
        <ele>461.02108</ele>
        <time>2022-05-01T09:50:54.607Z</time>
      </trkpt>
      <trkpt lat="41.07307" lon="20.46657">
        <ele>460.716122</ele>
        <time>2022-05-01T09:51:32.552Z</time>
      </trkpt>
      <trkpt lat="41.0738" lon="20.46412">
        <ele>476.389324</ele>
        <time>2022-05-01T09:53:01.552Z</time>
      </trkpt>
      <trkpt lat="41.0754" lon="20.46237">
        <ele>477.545221</ele>
        <time>2022-05-01T09:54:14.548Z</time>
      </trkpt>
      <trkpt lat="41.07763" lon="20.46084">
        <ele>467.521043</ele>
        <time>2022-05-01T09:54:54.546Z</time>
      </trkpt>
      <trkpt lat="41.07931" lon="20.45933">
        <ele>460.562329</ele>
        <time>2022-05-01T09:55:16.550Z</time>
      </trkpt>
      <trkpt lat="41.08116" lon="20.45639">
        <ele>459.243632</ele>
        <time>2022-05-01T09:55:55.535Z</time>
      </trkpt>
      <trkpt lat="41.08272" lon="20.45449">
        <ele>462.757905</ele>
        <time>2022-05-01T10:00:22.545Z</time>
      </trkpt>
      <trkpt lat="41.08399" lon="20.4523">
        <ele>465.825338</ele>
        <time>2022-05-01T10:01:23.559Z</time>
      </trkpt>
      <trkpt lat="41.08606" lon="20.45148">
        <ele>467.166617</ele>
        <time>2022-05-01T10:02:23.555Z</time>
      </trkpt>
      <trkpt lat="41.0879" lon="20.45028">
        <ele>477.157135</ele>
        <time>2022-05-01T10:03:42.580Z</time>
      </trkpt>
      <trkpt lat="41.08884" lon="20.44799">
        <ele>487.857463</ele>
        <time>2022-05-01T10:05:25.532Z</time>
      </trkpt>
      <trkpt lat="41.09076" lon="20.44574">
        <ele>479.030191</ele>
        <time>2022-05-01T10:06:06.550Z</time>
      </trkpt>
      <trkpt lat="41.09327" lon="20.44529">
        <ele>466.19231</ele>
        <time>2022-05-01T10:06:33.562Z</time>
      </trkpt>
      <trkpt lat="41.09522" lon="20.44436">
        <ele>454.950916</ele>
        <time>2022-05-01T10:06:54.533Z</time>
      </trkpt>
      <trkpt lat="41.09732" lon="20.44366">
        <ele>442.31772</ele>
        <time>2022-05-01T10:07:14.565Z</time>
      </trkpt>
      <trkpt lat="41.0994" lon="20.44359">
        <ele>429.922826</ele>
        <time>2022-05-01T10:07:43.533Z</time>
      </trkpt>
      <trkpt lat="41.09826" lon="20.44132">
        <ele>420.939098</ele>
        <time>2022-05-01T10:08:06.568Z</time>
      </trkpt>
      <trkpt lat="41.09907" lon="20.43886">
        <ele>415.687433</ele>
        <time>2022-05-01T10:08:26.567Z</time>
      </trkpt>
      <trkpt lat="41.10121" lon="20.43785">
        <ele>409.295294</ele>
        <time>2022-05-01T10:08:52.558Z</time>
      </trkpt>
      <trkpt lat="41.10302" lon="20.43616">
        <ele>414.544622</ele>
        <time>2022-05-01T10:09:42.555Z</time>
      </trkpt>
      <trkpt lat="41.10448" lon="20.43421">
        <ele>413.935654</ele>
        <time>2022-05-01T10:10:27.543Z</time>
      </trkpt>
      <trkpt lat="41.10718" lon="20.43257">
        <ele>413.444622</ele>
        <time>2022-05-01T10:11:07.559Z</time>
      </trkpt>
      <trkpt lat="41.10837" lon="20.4299">
        <ele>414.406049</ele>
        <time>2022-05-01T10:11:53.552Z</time>
      </trkpt>
      <trkpt lat="41.10999" lon="20.42616">
        <ele>403.481297</ele>
        <time>2022-05-01T10:12:35.550Z</time>
      </trkpt>
      <trkpt lat="41.11116" lon="20.4229">
        <ele>396.145035</ele>
        <time>2022-05-01T10:13:15.557Z</time>
      </trkpt>
      <trkpt lat="41.11304" lon="20.42124">
        <ele>392.397147</ele>
        <time>2022-05-01T10:14:10.554Z</time>
      </trkpt>
      <trkpt lat="41.11525" lon="20.41957">
        <ele>392.654325</ele>
        <time>2022-05-01T10:14:50.553Z</time>
      </trkpt>
      <trkpt lat="41.11662" lon="20.41758">
        <ele>399.396974</ele>
        <time>2022-05-01T10:15:45.558Z</time>
      </trkpt>
      <trkpt lat="41.11794" lon="20.41549">
        <ele>402.203634</ele>
        <time>2022-05-01T10:16:50.546Z</time>
      </trkpt>
      <trkpt lat="41.11975" lon="20.4133">
        <ele>395.221369</ele>
        <time>2022-05-01T10:17:23.558Z</time>
      </trkpt>
      <trkpt lat="41.12113" lon="20.41124">
        <ele>385.830541</ele>
        <time>2022-05-01T10:17:43.555Z</time>
      </trkpt>
      <trkpt lat="41.12306" lon="20.41067">
        <ele>391.884722</ele>
        <time>2022-05-01T10:18:31.547Z</time>
      </trkpt>
      <trkpt lat="41.12464" lon="20.40912">
        <ele>402.360164</ele>
        <time>2022-05-01T10:20:11.537Z</time>
      </trkpt>
      <trkpt lat="41.12633" lon="20.40739">
        <ele>401.265243</ele>
        <time>2022-05-01T10:21:11.550Z</time>
      </trkpt>
      <trkpt lat="41.12712" lon="20.4046">
        <ele>391.388679</ele>
        <time>2022-05-01T10:21:31.555Z</time>
      </trkpt>
      <trkpt lat="41.12811" lon="20.40186">
        <ele>384.28751</ele>
        <time>2022-05-01T10:22:05.551Z</time>
      </trkpt>
      <trkpt lat="41.12992" lon="20.40083">
        <ele>381.835927</ele>
        <time>2022-05-01T10:22:46.559Z</time>
      </trkpt>
      <trkpt lat="41.13198" lon="20.40002">
        <ele>383.84238</ele>
        <time>2022-05-01T10:23:29.540Z</time>
      </trkpt>
      <trkpt lat="41.13333" lon="20.39782">
        <ele>388.14143</ele>
        <time>2022-05-01T10:24:16.550Z</time>
      </trkpt>
      <trkpt lat="41.13529" lon="20.39592">
        <ele>376.936133</ele>
        <time>2022-05-01T10:24:49.550Z</time>
      </trkpt>
      <trkpt lat="41.13638" lon="20.3933">
        <ele>369.137042</ele>
        <time>2022-05-01T10:25:18.551Z</time>
      </trkpt>
      <trkpt lat="41.13693" lon="20.39029">
        <ele>361.817457</ele>
        <time>2022-05-01T10:25:48.549Z</time>
      </trkpt>
      <trkpt lat="41.13739" lon="20.38682">
        <ele>354.474133</ele>
        <time>2022-05-01T10:26:22.640Z</time>
      </trkpt>
      <trkpt lat="41.13544" lon="20.38438">
        <ele>345.55383</ele>
        <time>2022-05-01T10:27:02.582Z</time>
      </trkpt>
      <trkpt lat="41.13691" lon="20.38193">
        <ele>336.983219</ele>
        <time>2022-05-01T10:27:37.565Z</time>
      </trkpt>
      <trkpt lat="41.13888" lon="20.3834">
        <ele>336.004124</ele>
        <time>2022-05-01T10:28:17.544Z</time>
      </trkpt>
      <trkpt lat="41.14102" lon="20.38387">
        <ele>343.340677</ele>
        <time>2022-05-01T10:29:26.545Z</time>
      </trkpt>
      <trkpt lat="41.14278" lon="20.3814">
        <ele>343.834484</ele>
        <time>2022-05-01T10:30:18.565Z</time>
      </trkpt>
      <trkpt lat="41.14417" lon="20.37925">
        <ele>350.389158</ele>
        <time>2022-05-01T10:31:31.555Z</time>
      </trkpt>
      <trkpt lat="41.14592" lon="20.37774">
        <ele>355.578507</ele>
        <time>2022-05-01T10:32:22.529Z</time>
      </trkpt>
      <trkpt lat="41.14817" lon="20.37622">
        <ele>342.121433</ele>
        <time>2022-05-01T10:32:51.592Z</time>
      </trkpt>
      <trkpt lat="41.1499" lon="20.37475">
        <ele>334.639771</ele>
        <time>2022-05-01T10:33:11.539Z</time>
      </trkpt>
      <trkpt lat="41.15222" lon="20.37343">
        <ele>332.357042</ele>
        <time>2022-05-01T10:33:51.543Z</time>
      </trkpt>
      <trkpt lat="41.15327" lon="20.37069">
        <ele>328.952949</ele>
        <time>2022-05-01T10:34:18.630Z</time>
      </trkpt>
      <trkpt lat="41.15322" lon="20.36796">
        <ele>328.734701</ele>
        <time>2022-05-01T10:34:57.583Z</time>
      </trkpt>
      <trkpt lat="41.15263" lon="20.36527">
        <ele>334.368743</ele>
        <time>2022-05-01T10:35:40.563Z</time>
      </trkpt>
      <trkpt lat="41.15406" lon="20.36277">
        <ele>329.089745</ele>
        <time>2022-05-01T10:36:20.557Z</time>
      </trkpt>
      <trkpt lat="41.15519" lon="20.35982">
        <ele>322.65959</ele>
        <time>2022-05-01T10:36:52.513Z</time>
      </trkpt>
      <trkpt lat="41.15689" lon="20.35833">
        <ele>321.525732</ele>
        <time>2022-05-01T10:37:39.554Z</time>
      </trkpt>
      <trkpt lat="41.15887" lon="20.35782">
        <ele>333.320171</ele>
        <time>2022-05-01T10:39:23.535Z</time>
      </trkpt>
      <trkpt lat="41.16076" lon="20.35739">
        <ele>349.296622</ele>
        <time>2022-05-01T10:41:44.543Z</time>
      </trkpt>
      <trkpt lat="41.16267" lon="20.35597">
        <ele>350.896078</ele>
        <time>2022-05-01T10:42:45.595Z</time>
      </trkpt>
      <trkpt lat="41.16395" lon="20.35351">
        <ele>345.045127</ele>
        <time>2022-05-01T10:43:22.546Z</time>
      </trkpt>
      <trkpt lat="41.16419" lon="20.35031">
        <ele>329.39628</ele>
        <time>2022-05-01T10:43:48.552Z</time>
      </trkpt>
      <trkpt lat="41.16491" lon="20.34783">
        <ele>312.962126</ele>
        <time>2022-05-01T10:44:10.567Z</time>
      </trkpt>
      <trkpt lat="41.16658" lon="20.34598">
        <ele>300.978849</ele>
        <time>2022-05-01T10:44:30.583Z</time>
      </trkpt>
      <trkpt lat="41.16665" lon="20.34272">
        <ele>298.505254</ele>
        <time>2022-05-01T10:45:10.547Z</time>
      </trkpt>
      <trkpt lat="41.16647" lon="20.33992">
        <ele>301.482857</ele>
        <time>2022-05-01T10:46:00.544Z</time>
      </trkpt>
      <trkpt lat="41.16724" lon="20.33713">
        <ele>300.71725</ele>
        <time>2022-05-01T10:46:56.570Z</time>
      </trkpt>
      <trkpt lat="41.16842" lon="20.33446">
        <ele>294.398619</ele>
        <time>2022-05-01T10:47:31.547Z</time>
      </trkpt>
      <trkpt lat="41.17055" lon="20.33278">
        <ele>294.062838</ele>
        <time>2022-05-01T10:48:00.565Z</time>
      </trkpt>
      <trkpt lat="41.17173" lon="20.33027">
        <ele>293.569709</ele>
        <time>2022-05-01T10:48:48.543Z</time>
      </trkpt>
      <trkpt lat="41.17344" lon="20.32884">
        <ele>295.498835</ele>
        <time>2022-05-01T10:49:42.540Z</time>
      </trkpt>
      <trkpt lat="41.17415" lon="20.32643">
        <ele>305.173282</ele>
        <time>2022-05-01T10:51:27.564Z</time>
      </trkpt>
      <trkpt lat="41.17535" lon="20.32413">
        <ele>294.872069</ele>
        <time>2022-05-01T10:51:54.546Z</time>
      </trkpt>
      <trkpt lat="41.177" lon="20.32089">
        <ele>279.289174</ele>
        <time>2022-05-01T10:52:28.539Z</time>
      </trkpt>
      <trkpt lat="41.17755" lon="20.3174">
        <ele>274.559329</ele>
        <time>2022-05-01T10:53:06.550Z</time>
      </trkpt>
      <trkpt lat="41.17891" lon="20.31437">
        <ele>289.170112</ele>
        <time>2022-05-01T10:57:06.547Z</time>
      </trkpt>
      <trkpt lat="41.18019" lon="20.31301">
        <ele>295.775787</ele>
        <time>2022-05-01T11:09:59.559Z</time>
      </trkpt>
      <trkpt lat="41.18142" lon="20.3112">
        <ele>287.108212</ele>
        <time>2022-05-01T11:11:09.602Z</time>
      </trkpt>
      <trkpt lat="41.18318" lon="20.31003">
        <ele>297.924609</ele>
        <time>2022-05-01T11:12:49.542Z</time>
      </trkpt>
      <trkpt lat="41.18437" lon="20.30806">
        <ele>305.738582</ele>
        <time>2022-05-01T11:14:25.546Z</time>
      </trkpt>
      <trkpt lat="41.18541" lon="20.30547">
        <ele>307.863786</ele>
        <time>2022-05-01T11:15:39.552Z</time>
      </trkpt>
      <trkpt lat="41.1863" lon="20.30243">
        <ele>307.883056</ele>
        <time>2022-05-01T11:16:32.559Z</time>
      </trkpt>
      <trkpt lat="41.18685" lon="20.30013">
        <ele>316.136986</ele>
        <time>2022-05-01T11:18:21.563Z</time>
      </trkpt>
      <trkpt lat="41.1879" lon="20.29708">
        <ele>302.305102</ele>
        <time>2022-05-01T11:18:52.548Z</time>
      </trkpt>
      <trkpt lat="41.18816" lon="20.29432">
        <ele>290.104255</ele>
        <time>2022-05-01T11:19:12.547Z</time>
      </trkpt>
      <trkpt lat="41.18894" lon="20.29143">
        <ele>275.273844</ele>
        <time>2022-05-01T11:19:32.551Z</time>
      </trkpt>
      <trkpt lat="41.18735" lon="20.28929">
        <ele>259.938903</ele>
        <time>2022-05-01T11:19:52.558Z</time>
      </trkpt>
      <trkpt lat="41.18635" lon="20.28711">
        <ele>255.416723</ele>
        <time>2022-05-01T11:20:14.538Z</time>
      </trkpt>
      <trkpt lat="41.18777" lon="20.28398">
        <ele>252.714313</ele>
        <time>2022-05-01T11:20:54.542Z</time>
      </trkpt>
      <trkpt lat="41.1868" lon="20.28186">
        <ele>249.101244</ele>
        <time>2022-05-01T11:21:34.547Z</time>
      </trkpt>
      <trkpt lat="41.18516" lon="20.27969">
        <ele>252.767448</ele>
        <time>2022-05-01T11:22:14.558Z</time>
      </trkpt>
      <trkpt lat="41.18496" lon="20.27708">
        <ele>255.861487</ele>
        <time>2022-05-01T11:22:55.530Z</time>
      </trkpt>
      <trkpt lat="41.18544" lon="20.27425">
        <ele>257.03795</ele>
        <time>2022-05-01T11:23:35.539Z</time>
      </trkpt>
      <trkpt lat="41.18464" lon="20.27179">
        <ele>253.013037</ele>
        <time>2022-05-01T11:24:27.548Z</time>
      </trkpt>
      <trkpt lat="41.18294" lon="20.27382">
        <ele>243.234729</ele>
        <time>2022-05-01T11:25:07.566Z</time>
      </trkpt>
      <trkpt lat="41.18108" lon="20.27286">
        <ele>247.195303</ele>
        <time>2022-05-01T11:26:12.595Z</time>
      </trkpt>
      <trkpt lat="41.17977" lon="20.27096">
        <ele>268.444958</ele>
        <time>2022-05-01T11:28:25.543Z</time>
      </trkpt>
      <trkpt lat="41.17888" lon="20.26873">
        <ele>286.180512</ele>
        <time>2022-05-01T11:30:30.577Z</time>
      </trkpt>
      <trkpt lat="41.17859" lon="20.26614">
        <ele>293.597047</ele>
        <time>2022-05-01T11:32:25.538Z</time>
      </trkpt>
      <trkpt lat="41.17766" lon="20.26331">
        <ele>289.85088</ele>
        <time>2022-05-01T11:33:09.558Z</time>
      </trkpt>
      <trkpt lat="41.17619" lon="20.26108">
        <ele>276.984975</ele>
        <time>2022-05-01T11:33:29.572Z</time>
      </trkpt>
      <trkpt lat="41.17442" lon="20.25919">
        <ele>264.225694</ele>
        <time>2022-05-01T11:33:49.548Z</time>
      </trkpt>
      <trkpt lat="41.17233" lon="20.25724">
        <ele>260.509241</ele>
        <time>2022-05-01T11:34:24.550Z</time>
      </trkpt>
      <trkpt lat="41.17131" lon="20.25456">
        <ele>253.180748</ele>
        <time>2022-05-01T11:34:44.555Z</time>
      </trkpt>
      <trkpt lat="41.16964" lon="20.25268">
        <ele>245.613787</ele>
        <time>2022-05-01T11:35:04.557Z</time>
      </trkpt>
      <trkpt lat="41.16828" lon="20.25088">
        <ele>250.014364</ele>
        <time>2022-05-01T11:36:04.591Z</time>
      </trkpt>
      <trkpt lat="41.16734" lon="20.24799">
        <ele>256.021988</ele>
        <time>2022-05-01T11:36:53.562Z</time>
      </trkpt>
      <trkpt lat="41.16682" lon="20.24515">
        <ele>247.66011</ele>
        <time>2022-05-01T11:37:13.549Z</time>
      </trkpt>
      <trkpt lat="41.1653" lon="20.24358">
        <ele>232.028235</ele>
        <time>2022-05-01T11:37:33.599Z</time>
      </trkpt>
      <trkpt lat="41.16489" lon="20.24066">
        <ele>220.820847</ele>
        <time>2022-05-01T11:38:16.549Z</time>
      </trkpt>
      <trkpt lat="41.16576" lon="20.23764">
        <ele>225.643158</ele>
        <time>2022-05-01T11:38:59.536Z</time>
      </trkpt>
      <trkpt lat="41.16633" lon="20.23503">
        <ele>231.889</ele>
        <time>2022-05-01T11:40:20.568Z</time>
      </trkpt>
      <trkpt lat="41.16603" lon="20.23156">
        <ele>229.277703</ele>
        <time>2022-05-01T11:41:04.564Z</time>
      </trkpt>
      <trkpt lat="41.16461" lon="20.22949">
        <ele>234.926392</ele>
        <time>2022-05-01T11:42:02.559Z</time>
      </trkpt>
      <trkpt lat="41.16434" lon="20.22655">
        <ele>233.222446</ele>
        <time>2022-05-01T11:42:58.538Z</time>
      </trkpt>
      <trkpt lat="41.16546" lon="20.22324">
        <ele>223.313091</ele>
        <time>2022-05-01T11:43:38.588Z</time>
      </trkpt>
      <trkpt lat="41.16618" lon="20.22063">
        <ele>224.258222</ele>
        <time>2022-05-01T11:44:20.548Z</time>
      </trkpt>
      <trkpt lat="41.16702" lon="20.21747">
        <ele>225.154626</ele>
        <time>2022-05-01T11:45:03.549Z</time>
      </trkpt>
      <trkpt lat="41.16751" lon="20.2148">
        <ele>227.920581</ele>
        <time>2022-05-01T11:46:09.560Z</time>
      </trkpt>
      <trkpt lat="41.16742" lon="20.21128">
        <ele>225.200937</ele>
        <time>2022-05-01T11:46:51.552Z</time>
      </trkpt>
      <trkpt lat="41.16682" lon="20.2085">
        <ele>226.947526</ele>
        <time>2022-05-01T11:47:43.609Z</time>
      </trkpt>
      <trkpt lat="41.16643" lon="20.20549">
        <ele>227.671498</ele>
        <time>2022-05-01T11:48:23.559Z</time>
      </trkpt>
      <trkpt lat="41.16611" lon="20.20266">
        <ele>233.542682</ele>
        <time>2022-05-01T11:49:15.559Z</time>
      </trkpt>
      <trkpt lat="41.16611" lon="20.19984">
        <ele>233.69166</ele>
        <time>2022-05-01T11:50:18.557Z</time>
      </trkpt>
      <trkpt lat="41.16492" lon="20.19735">
        <ele>233.715294</ele>
        <time>2022-05-01T11:51:18.552Z</time>
      </trkpt>
      <trkpt lat="41.16271" lon="20.1955">
        <ele>234.668521</ele>
        <time>2022-05-01T11:52:00.558Z</time>
      </trkpt>
      <trkpt lat="41.16104" lon="20.19354">
        <ele>224.543075</ele>
        <time>2022-05-01T11:52:23.544Z</time>
      </trkpt>
      <trkpt lat="41.16034" lon="20.19073">
        <ele>204.727567</ele>
        <time>2022-05-01T11:52:58.616Z</time>
      </trkpt>
      <trkpt lat="41.16005" lon="20.18791">
        <ele>200.31776</ele>
        <time>2022-05-01T11:53:38.551Z</time>
      </trkpt>
      <trkpt lat="41.15927" lon="20.18497">
        <ele>202.612207</ele>
        <time>2022-05-01T11:54:18.646Z</time>
      </trkpt>
      <trkpt lat="41.15928" lon="20.18185">
        <ele>200.593111</ele>
        <time>2022-05-01T11:54:58.548Z</time>
      </trkpt>
      <trkpt lat="41.16008" lon="20.17909">
        <ele>200.181375</ele>
        <time>2022-05-01T11:55:38.555Z</time>
      </trkpt>
      <trkpt lat="41.16038" lon="20.17607">
        <ele>198.959815</ele>
        <time>2022-05-01T11:56:18.566Z</time>
      </trkpt>
      <trkpt lat="41.1597" lon="20.17306">
        <ele>198.618224</ele>
        <time>2022-05-01T11:56:58.571Z</time>
      </trkpt>
      <trkpt lat="41.15843" lon="20.17047">
        <ele>199.779314</ele>
        <time>2022-05-01T11:57:38.582Z</time>
      </trkpt>
      <trkpt lat="41.15691" lon="20.16869">
        <ele>198.643458</ele>
        <time>2022-05-01T11:58:18.538Z</time>
      </trkpt>
      <trkpt lat="41.15503" lon="20.16685">
        <ele>197.384989</ele>
        <time>2022-05-01T11:58:58.537Z</time>
      </trkpt>
      <trkpt lat="41.15322" lon="20.16507">
        <ele>196.776432</ele>
        <time>2022-05-01T11:59:38.564Z</time>
      </trkpt>
      <trkpt lat="41.15136" lon="20.1633">
        <ele>196.431261</ele>
        <time>2022-05-01T12:00:18.593Z</time>
      </trkpt>
      <trkpt lat="41.14946" lon="20.16156">
        <ele>191.737539</ele>
        <time>2022-05-01T12:00:58.560Z</time>
      </trkpt>
      <trkpt lat="41.14686" lon="20.15924">
        <ele>187.978012</ele>
        <time>2022-05-01T12:01:38.559Z</time>
      </trkpt>
      <trkpt lat="41.14488" lon="20.1565">
        <ele>186.050312</ele>
        <time>2022-05-01T12:02:18.551Z</time>
      </trkpt>
      <trkpt lat="41.14359" lon="20.15438">
        <ele>186.33815</ele>
        <time>2022-05-01T12:02:58.553Z</time>
      </trkpt>
      <trkpt lat="41.14215" lon="20.15195">
        <ele>187.349532</ele>
        <time>2022-05-01T12:03:55.546Z</time>
      </trkpt>
      <trkpt lat="41.14068" lon="20.14993">
        <ele>194.452492</ele>
        <time>2022-05-01T12:04:55.593Z</time>
      </trkpt>
      <trkpt lat="41.13901" lon="20.14775">
        <ele>192.092601</ele>
        <time>2022-05-01T12:05:55.555Z</time>
      </trkpt>
      <trkpt lat="41.13736" lon="20.14524">
        <ele>188.04603</ele>
        <time>2022-05-01T12:06:44.557Z</time>
      </trkpt>
      <trkpt lat="41.1355" lon="20.14289">
        <ele>178.333419</ele>
        <time>2022-05-01T12:07:13.566Z</time>
      </trkpt>
      <trkpt lat="41.13365" lon="20.14017">
        <ele>169.736991</ele>
        <time>2022-05-01T12:07:49.565Z</time>
      </trkpt>
      <trkpt lat="41.13227" lon="20.13791">
        <ele>168.350275</ele>
        <time>2022-05-01T12:08:32.552Z</time>
      </trkpt>
      <trkpt lat="41.13115" lon="20.1356">
        <ele>167.191658</ele>
        <time>2022-05-01T12:09:12.548Z</time>
      </trkpt>
      <trkpt lat="41.12994" lon="20.13348">
        <ele>167.033561</ele>
        <time>2022-05-01T12:09:52.559Z</time>
      </trkpt>
      <trkpt lat="41.12873" lon="20.13136">
        <ele>168.099482</ele>
        <time>2022-05-01T12:10:32.545Z</time>
      </trkpt>
      <trkpt lat="41.12775" lon="20.12855">
        <ele>167.149391</ele>
        <time>2022-05-01T12:11:12.562Z</time>
      </trkpt>
      <trkpt lat="41.12688" lon="20.12593">
        <ele>168.397326</ele>
        <time>2022-05-01T12:11:52.558Z</time>
      </trkpt>
      <trkpt lat="41.12582" lon="20.1236">
        <ele>169.374003</ele>
        <time>2022-05-01T12:12:41.540Z</time>
      </trkpt>
      <trkpt lat="41.12485" lon="20.12115">
        <ele>175.504346</ele>
        <time>2022-05-01T12:13:53.548Z</time>
      </trkpt>
      <trkpt lat="41.1242" lon="20.11756">
        <ele>168.428964</ele>
        <time>2022-05-01T12:14:30.531Z</time>
      </trkpt>
      <trkpt lat="41.12371" lon="20.11395">
        <ele>166.606443</ele>
        <time>2022-05-01T12:15:10.555Z</time>
      </trkpt>
      <trkpt lat="41.12302" lon="20.1113">
        <ele>167.328793</ele>
        <time>2022-05-01T12:15:50.514Z</time>
      </trkpt>
      <trkpt lat="41.12233" lon="20.10868">
        <ele>168.55967</ele>
        <time>2022-05-01T12:16:30.567Z</time>
      </trkpt>
      <trkpt lat="41.12205" lon="20.1061">
        <ele>174.098326</ele>
        <time>2022-05-01T12:17:10.554Z</time>
      </trkpt>
      <trkpt lat="41.12162" lon="20.10287">
        <ele>181.315981</ele>
        <time>2022-05-01T12:18:10.548Z</time>
      </trkpt>
      <trkpt lat="41.12072" lon="20.09988">
        <ele>175.807505</ele>
        <time>2022-05-01T12:19:08.549Z</time>
      </trkpt>
      <trkpt lat="41.11996" lon="20.0973">
        <ele>178.586538</ele>
        <time>2022-05-01T12:20:03.536Z</time>
      </trkpt>
      <trkpt lat="41.11881" lon="20.09475">
        <ele>180.446365</ele>
        <time>2022-05-01T12:20:46.543Z</time>
      </trkpt>
      <trkpt lat="41.11881" lon="20.0925">
        <ele>181.852878</ele>
        <time>2022-05-01T12:21:39.553Z</time>
      </trkpt>
      <trkpt lat="41.12035" lon="20.09068">
        <ele>177.437638</ele>
        <time>2022-05-01T12:22:41.554Z</time>
      </trkpt>
      <trkpt lat="41.11881" lon="20.08876">
        <ele>179.428313</ele>
        <time>2022-05-01T12:23:47.564Z</time>
      </trkpt>
      <trkpt lat="41.11767" lon="20.08679">
        <ele>182.134023</ele>
        <time>2022-05-01T12:24:47.580Z</time>
      </trkpt>
      <trkpt lat="41.11746" lon="20.08594">
        <ele>182.134023</ele>
        <time>2022-05-01T12:26:33.963Z</time>
      </trkpt>
    </trkseg>
  </trk>
</gpx>